createdAt,value
2019-04-26T00:01:34.837Z,99169.12
2019-04-26T00:04:10.172Z,99175.78
2019-04-26T00:06:44.958Z,99170.79
2019-04-26T00:09:22.332Z,99166.88
2019-04-26T00:11:56.041Z,99162.15
2019-04-26T00:14:29.739Z,99174.84
2019-04-26T00:17:05.279Z,99168.83
2019-04-26T00:19:39.250Z,99173.62
2019-04-26T00:22:14.122Z,99175.97
2019-04-26T00:24:49.260Z,99179.23
2019-04-26T00:27:23.045Z,99191.06
2019-04-26T00:29:56.833Z,99185.34
2019-04-26T00:32:30.706Z,99187.43
2019-04-26T00:35:04.267Z,99188.86
2019-04-26T00:37:39.833Z,99196.16
2019-04-26T00:40:14.301Z,99196.50
2019-04-26T00:42:48.429Z,99192.66
2019-04-26T00:45:23.009Z,99194.97
2019-04-26T00:47:57.260Z,99194.36
2019-04-26T00:50:32.055Z,99195.31
2019-04-26T00:53:07.467Z,99205.26
2019-04-26T00:55:41.522Z,99199.80
2019-04-26T00:58:16.335Z,99196.34
2019-04-26T01:00:50.285Z,99202.37
2019-04-26T01:03:24.971Z,99200.47
2019-04-26T01:06:05.125Z,99203.34
2019-04-26T01:08:39.346Z,99203.34
2019-04-26T01:11:13.116Z,99209.64
2019-04-26T01:13:47.072Z,99211.84
2019-04-26T01:16:20.711Z,99209.30
2019-04-26T01:18:55.298Z,99204.69
2019-04-26T01:21:31.603Z,99208.63
2019-04-26T01:24:07.814Z,99206.70
2019-04-26T01:26:43.265Z,99206.96
2019-04-26T01:29:19.638Z,99215.34
2019-04-26T01:32:07.672Z,99219.53
2019-04-26T01:34:42.506Z,99217.09
2019-04-26T01:37:18.287Z,99215.80
2019-04-26T01:39:55.790Z,99227.66
2019-04-26T01:42:30.111Z,99225.67
2019-04-26T01:45:06.047Z,99225.67
2019-04-26T01:47:40.020Z,99226.88
2019-04-26T01:50:15.219Z,99235.88
2019-04-26T01:52:50.281Z,99224.02
2019-04-26T01:55:26.990Z,99231.36
2019-04-26T01:58:04.869Z,99226.81
2019-04-26T02:00:38.719Z,99229.38
2019-04-26T02:03:12.359Z,99228.55
2019-04-26T02:05:46.060Z,99224.44
2019-04-26T02:08:19.908Z,99228.12
2019-04-26T02:10:53.536Z,99221.73
2019-04-26T02:13:28.865Z,99224.68
2019-04-26T02:16:02.776Z,99228.55
2019-04-26T02:18:36.785Z,99230.23
2019-04-26T02:21:12.693Z,99225.15
2019-04-26T02:23:48.151Z,99228.36
2019-04-26T02:26:22.217Z,99228.13
2019-04-26T02:28:56.513Z,99221.84
2019-04-26T02:31:31.446Z,99221.38
2019-04-26T02:34:06.935Z,99223.36
2019-04-26T02:36:56.454Z,99218.53
2019-04-26T02:39:35.273Z,99222.41
2019-04-26T02:42:11.753Z,99221.84
2019-04-26T02:44:48.010Z,99220.56
2019-04-26T02:47:30.477Z,99219.40
2019-04-26T02:50:06.548Z,99218.22
2019-04-26T02:52:58.298Z,99212.80
2019-04-26T02:56:24.339Z,99218.31
2019-04-26T02:59:08.870Z,99211.68
2019-04-26T03:01:44.444Z,99209.63
2019-04-26T03:04:22.526Z,99204.12
2019-04-26T03:07:03.298Z,99198.04
2019-04-26T03:09:38.724Z,99201.25
2019-04-26T03:12:20.116Z,99199.00
2019-04-26T03:15:12.657Z,99205.45
2019-04-26T03:17:38.030Z,99194.41
2019-04-26T03:20:21.278Z,99194.36
2019-04-26T03:23:08.271Z,99191.77
2019-04-26T03:26:08.769Z,99192.06
2019-04-26T03:29:15.245Z,99190.49
2019-04-26T03:31:55.381Z,99190.09
2019-04-26T03:34:54.787Z,99181.52
2019-04-26T03:37:45.118Z,99174.68
2019-04-26T03:40:34.650Z,99174.89
2019-04-26T03:43:34.386Z,99177.44
2019-04-26T03:46:37.581Z,99180.93
2019-04-26T03:49:42.016Z,99178.62
2019-04-26T03:52:44.130Z,99182.79
2019-04-26T03:55:37.790Z,99168.27
2019-04-26T03:58:41.786Z,99164.98
2019-04-26T04:01:19.440Z,99151.58
2019-04-26T04:03:53.746Z,99159.89
2019-04-26T04:06:31.230Z,99167.30
2019-04-26T04:09:18.034Z,99166.98
2019-04-26T04:12:10.059Z,99163.41
2019-04-26T04:14:48.792Z,99164.07
2019-04-26T04:17:53.939Z,99160.91
2019-04-26T04:20:38.345Z,99169.95
2019-04-26T04:23:27.707Z,99149.02
2019-04-26T04:26:04.482Z,99154.83
2019-04-26T04:29:00.037Z,99158.03
2019-04-26T04:31:57.797Z,99158.03
2019-04-26T04:34:48.192Z,99145.23
2019-04-26T04:37:24.855Z,99132.11
2019-04-26T04:40:29.039Z,99138.64
2019-04-26T04:43:17.642Z,99129.06
2019-04-26T04:46:05.936Z,99133.28
2019-04-26T04:49:06.216Z,99138.41
2019-04-26T04:52:17.384Z,99130.99
2019-04-26T04:55:07.138Z,99129.63
2019-04-26T04:57:56.276Z,99115.20
2019-04-26T05:00:45.078Z,99113.05
2019-04-26T05:03:27.598Z,99120.91
2019-04-26T05:06:22.356Z,99112.95
2019-04-26T05:09:01.439Z,99103.72
2019-04-26T05:12:02.183Z,99104.33
2019-04-26T05:14:59.692Z,99114.69
2019-04-26T05:18:03.343Z,99110.59
2019-04-26T05:20:47.316Z,99105.17
2019-04-26T05:23:33.256Z,99129.80
2019-04-26T05:26:28.586Z,99102.27
2019-04-26T05:29:23.856Z,99095.86
2019-04-26T05:32:06.425Z,99108.46
2019-04-26T05:34:54.978Z,99095.33
2019-04-26T05:38:17.796Z,99087.95
2019-04-26T05:41:04.225Z,99085.40
2019-04-26T05:43:55.980Z,99084.08
2019-04-26T05:47:01.066Z,99081.95
2019-04-26T05:50:08.592Z,99087.92
2019-04-26T05:53:10.992Z,99087.08
2019-04-26T05:56:08.447Z,99079.92
2019-04-26T05:59:03.135Z,99074.66
2019-04-26T06:01:54.791Z,99066.27
2019-04-26T06:04:53.544Z,99066.27
2019-04-26T06:07:39.703Z,99062.48
2019-04-26T06:10:21.557Z,99060.80
2019-04-26T06:13:22.270Z,99060.44
2019-04-26T06:16:24.676Z,99050.81
2019-04-26T06:19:18.836Z,99051.47
2019-04-26T06:22:27.986Z,99052.06
2019-04-26T06:25:52.135Z,99045.47
2019-04-26T06:28:44.089Z,99038.66
2019-04-26T06:31:32.906Z,99046.69
2019-04-26T06:34:09.284Z,99038.84
2019-04-26T06:36:48.785Z,99042.95
2019-04-26T06:40:03.013Z,99036.91
2019-04-26T06:43:01.318Z,99039.09
2019-04-26T06:45:56.625Z,99043.01
2019-04-26T06:48:33.818Z,99024.38
2019-04-26T06:51:34.865Z,99033.43
2019-04-26T06:54:18.775Z,99034.23
2019-04-26T06:57:20.193Z,99028.61
2019-04-26T07:00:14.725Z,99017.86
2019-04-26T07:03:16.694Z,99022.11
2019-04-26T07:05:55.775Z,99007.77
2019-04-26T07:08:57.155Z,99007.06
2019-04-26T07:11:41.306Z,99015.30
2019-04-26T07:14:43.290Z,99012.05
2019-04-26T07:18:06.406Z,99012.42
2019-04-26T07:20:46.000Z,99010.59
2019-04-26T07:23:34.144Z,99013.45
2019-04-26T07:26:42.371Z,99010.91
2019-04-26T07:29:46.066Z,99009.35
2019-04-26T07:32:28.589Z,99012.30
2019-04-26T07:35:16.505Z,99000.53
2019-04-26T07:38:20.225Z,99007.80
2019-04-26T07:41:13.625Z,99007.95
2019-04-26T07:43:53.445Z,99010.42
2019-04-26T07:47:09.221Z,98999.27
2019-04-26T07:50:35.355Z,99003.24
2019-04-26T07:53:14.746Z,99004.70
2019-04-26T07:56:13.570Z,99010.44
2019-04-26T07:59:31.800Z,99009.47
2019-04-26T08:02:13.714Z,99013.91
2019-04-26T08:04:53.376Z,99015.50
2019-04-26T08:07:40.239Z,99021.48
2019-04-26T08:10:29.691Z,99017.34
2019-04-26T08:13:09.943Z,99021.77
2019-04-26T08:15:49.667Z,99021.77
2019-04-26T08:18:26.009Z,99020.89
2019-04-26T08:21:06.496Z,99017.88
2019-04-26T08:23:42.207Z,99025.20
2019-04-26T08:26:18.921Z,99017.42
2019-04-26T08:28:56.649Z,99025.46
2019-04-26T08:31:35.094Z,99027.54
2019-04-26T08:34:12.336Z,99027.18
2019-04-26T08:36:50.072Z,99026.77
2019-04-26T08:39:32.396Z,99030.75
2019-04-26T08:42:02.858Z,99030.94
2019-04-26T08:44:51.109Z,99030.80
2019-04-26T08:47:26.578Z,99034.36
2019-04-26T08:50:01.721Z,99032.13
2019-04-26T08:52:38.393Z,99037.49
2019-04-26T08:55:14.644Z,99032.21
2019-04-26T08:57:53.081Z,99028.34
2019-04-26T09:00:29.385Z,99025.95
2019-04-26T09:03:11.429Z,99024.47
2019-04-26T09:05:45.701Z,99025.39
2019-04-26T09:08:21.988Z,99027.70
2019-04-26T09:10:58.394Z,99024.41
2019-04-26T09:13:35.232Z,99031.51
2019-04-26T09:16:17.691Z,99022.65
2019-04-26T09:18:59.227Z,99014.20
2019-04-26T09:21:29.103Z,99024.94
2019-04-26T09:24:03.687Z,99021.52
2019-04-26T09:26:42.369Z,99022.76
2019-04-26T09:29:14.053Z,99017.27
2019-04-26T09:31:50.463Z,99026.92
2019-04-26T09:34:27.166Z,99029.10
2019-04-26T09:37:01.518Z,99025.05
2019-04-26T09:39:35.429Z,99031.31
2019-04-26T09:42:11.370Z,99031.74
2019-04-26T09:44:45.201Z,99028.34
2019-04-26T09:47:19.519Z,99031.11
2019-04-26T09:49:54.240Z,99032.20
2019-04-26T09:52:27.905Z,99041.30
2019-04-26T09:55:02.262Z,99038.00
2019-04-26T09:57:35.877Z,99040.34
2019-04-26T10:00:14.296Z,99041.48
2019-04-26T10:02:47.362Z,99043.20
2019-04-26T10:05:22.442Z,99039.17
2019-04-26T10:07:56.557Z,99043.17
2019-04-26T10:10:34.994Z,99046.90
2019-04-26T10:13:07.311Z,99047.39
2019-04-26T10:15:41.628Z,99054.77
2019-04-26T10:18:15.932Z,99057.52
2019-04-26T10:20:50.137Z,99058.84
2019-04-26T10:23:26.070Z,99064.98
2019-04-26T10:26:00.329Z,99060.27
2019-04-26T10:28:34.036Z,99063.98
2019-04-26T10:31:07.801Z,99070.48
2019-04-26T10:33:41.914Z,99066.88
2019-04-26T10:36:15.755Z,99066.40
2019-04-26T10:38:49.958Z,99070.53
2019-04-26T10:41:23.889Z,99076.89
2019-04-26T10:43:58.082Z,99075.38
2019-04-26T10:46:32.324Z,99080.73
2019-04-26T10:52:25.807Z,99086.71
2019-04-26T10:55:02.036Z,99087.63
2019-04-26T10:57:35.849Z,99092.20
2019-04-26T11:00:14.060Z,99092.61
2019-04-26T11:02:45.923Z,99090.17
2019-04-26T11:05:20.167Z,99096.14
2019-04-26T11:07:56.452Z,99099.31
2019-04-26T11:10:30.719Z,99100.57
2019-04-26T11:13:05.057Z,99095.98
2019-04-26T11:15:53.121Z,99099.10
2019-04-26T11:18:31.304Z,99099.88
2019-04-26T11:21:27.188Z,99099.39
2019-04-26T11:24:02.921Z,99100.09
2019-04-26T11:26:37.934Z,99104.89
2019-04-26T11:29:13.951Z,99107.36
2019-04-26T11:31:49.070Z,99104.42
2019-04-26T11:34:26.224Z,99109.61
2019-04-26T11:37:00.315Z,99118.23
2019-04-26T11:39:36.580Z,99114.91
2019-04-26T11:42:13.136Z,99116.42
2019-04-26T11:45:06.439Z,99121.93
2019-04-26T11:47:49.087Z,99124.83
2019-04-26T11:50:18.393Z,99133.80
2019-04-26T11:52:53.924Z,99137.08
2019-04-26T11:55:29.683Z,99136.47
2019-04-26T11:58:22.625Z,99146.08
2019-04-26T12:00:55.430Z,99150.36
2019-04-26T12:03:37.479Z,99160.80
2019-04-26T12:06:13.044Z,99159.65
2019-04-26T12:08:48.265Z,99156.39
2019-04-26T12:11:31.357Z,99158.86
2019-04-26T12:14:20.210Z,99163.99
2019-04-26T12:16:51.307Z,99167.12
2019-04-26T12:19:24.251Z,99166.23
2019-04-26T12:22:04.317Z,99169.63
2019-04-26T12:25:03.271Z,99179.94
2019-04-26T12:27:36.111Z,99175.66
2019-04-26T12:30:19.672Z,99175.43
2019-04-26T12:32:58.092Z,99182.12
2019-04-26T12:35:35.907Z,99185.84
2019-04-26T12:38:53.654Z,99185.86
2019-04-26T12:41:17.289Z,99192.77
2019-04-26T12:46:45.455Z,99192.95
2019-04-26T12:49:24.249Z,99197.30
2019-04-26T12:51:59.363Z,99195.20
2019-04-26T12:54:34.753Z,99205.03
2019-04-26T12:57:11.712Z,99205.41
2019-04-26T12:59:48.522Z,99198.88
2019-04-26T13:02:23.128Z,99213.24
2019-04-26T13:04:59.718Z,99208.22
2019-04-26T13:07:34.382Z,99210.38
2019-04-26T13:10:09.772Z,99210.64
2019-04-26T13:12:44.884Z,99215.87
2019-04-26T13:15:46.192Z,99213.59
2019-04-26T13:18:20.784Z,99212.15
2019-04-26T13:20:58.582Z,99214.98
2019-04-26T13:23:32.897Z,99220.81
2019-04-26T13:26:08.544Z,99219.48
2019-04-26T13:28:44.638Z,99226.88
2019-04-26T13:31:31.361Z,99233.89
2019-04-26T13:34:21.328Z,99238.00
2019-04-26T13:36:59.185Z,99238.80
2019-04-26T13:39:33.176Z,99238.81
2019-04-26T13:42:17.493Z,99237.45
2019-04-26T13:44:51.951Z,99231.53
2019-04-26T13:47:28.103Z,99231.69
2019-04-26T13:50:05.619Z,99233.74
2019-04-26T13:52:40.382Z,99232.66
2019-04-26T13:55:15.075Z,99233.13
2019-04-26T13:57:51.979Z,99233.94
2019-04-26T14:00:29.160Z,99231.36
2019-04-26T14:03:11.533Z,99228.45
2019-04-26T14:05:48.476Z,99225.22
2019-04-26T14:08:22.843Z,99232.90
2019-04-26T14:10:58.040Z,99236.16
2019-04-26T14:13:32.124Z,99239.64
2019-04-26T14:16:07.823Z,99237.11
2019-04-26T14:18:41.932Z,99237.27
2019-04-26T14:21:18.100Z,99232.07
2019-04-26T14:23:52.242Z,99228.71
2019-04-26T14:26:26.914Z,99229.58
2019-04-26T14:29:01.408Z,99230.08
2019-04-26T14:31:36.474Z,99230.27
2019-04-26T14:34:12.143Z,99235.22
2019-04-26T14:36:47.264Z,99227.39
2019-04-26T14:39:33.872Z,99233.27
2019-04-26T14:42:01.166Z,99238.78
2019-04-26T14:44:48.863Z,99234.88
2019-04-26T14:47:15.022Z,99236.91
2019-04-26T14:49:48.176Z,99230.51
2019-04-26T14:52:24.076Z,99239.11
2019-04-26T14:54:57.092Z,99241.73
2019-04-26T14:57:38.474Z,99239.52
2019-04-26T15:00:16.915Z,99246.81
2019-04-26T15:02:50.472Z,99238.24
2019-04-26T15:05:26.163Z,99245.34
2019-04-26T15:08:05.418Z,99245.66
2019-04-26T15:10:43.806Z,99243.25
2019-04-26T15:13:20.041Z,99233.50
2019-04-26T15:15:48.916Z,99231.32
2019-04-26T15:18:24.076Z,99230.06
2019-04-26T15:20:58.647Z,99230.30
2019-04-26T15:23:34.479Z,99226.10
2019-04-26T15:26:08.265Z,99227.72
2019-04-26T15:28:43.655Z,99225.06
2019-04-26T15:31:17.177Z,99225.34
2019-04-26T15:33:52.844Z,99224.55
2019-04-26T15:36:27.227Z,99220.99
2019-04-26T15:39:02.631Z,99227.56
2019-04-26T15:41:37.960Z,99223.20
2019-04-26T15:44:13.146Z,99222.36
2019-04-26T15:46:48.677Z,99216.06
2019-04-26T15:49:22.502Z,99219.09
2019-04-26T15:51:59.732Z,99223.72
2019-04-26T15:54:32.414Z,99227.83
2019-04-26T15:57:12.094Z,99225.65
2019-04-26T15:59:43.328Z,99234.08
2019-04-26T16:02:18.254Z,99234.09
2019-04-26T16:04:54.406Z,99233.29
2019-04-26T16:07:29.163Z,99228.63
2019-04-26T16:10:05.531Z,99234.08
2019-04-26T16:12:42.224Z,99237.33
2019-04-26T16:15:17.546Z,99244.95
2019-04-26T16:17:51.329Z,99231.63
2019-04-26T16:20:26.100Z,99237.90
2019-04-26T16:23:03.948Z,99237.08
2019-04-26T16:25:38.403Z,99233.53
2019-04-26T16:28:12.575Z,99234.85
2019-04-26T16:30:48.853Z,99231.87
2019-04-26T16:33:28.535Z,99230.52
2019-04-26T16:36:02.633Z,99231.09
2019-04-26T16:38:41.045Z,99238.11
2019-04-26T16:41:16.566Z,99236.20
2019-04-26T16:43:53.174Z,99231.57
2019-04-26T16:46:28.592Z,99229.41
2019-04-26T16:49:05.660Z,99224.53
2019-04-26T16:51:37.902Z,99221.84
2019-04-26T16:54:20.675Z,99222.63
2019-04-26T16:56:46.568Z,99226.13
2019-04-26T16:59:23.990Z,99226.10
2019-04-26T17:01:55.587Z,99231.84
2019-04-26T17:04:32.477Z,99221.56
2019-04-26T17:07:05.124Z,99218.48
2019-04-26T17:09:55.744Z,99215.70
2019-04-26T17:12:16.124Z,99208.34
2019-04-26T17:14:50.496Z,99214.13
2019-04-26T17:17:25.427Z,99220.08
2019-04-26T17:19:59.185Z,99219.28
2019-04-26T17:22:42.550Z,99222.44
2019-04-26T17:25:08.155Z,99226.56
2019-04-26T17:27:45.881Z,99227.56
2019-04-26T17:30:17.707Z,99227.72
2019-04-26T17:32:52.938Z,99232.59
2019-04-26T17:35:26.499Z,99229.57
2019-04-26T17:38:01.995Z,99225.72
2019-04-26T17:40:36.705Z,99233.31
2019-04-26T17:43:13.306Z,99234.68
2019-04-26T17:45:47.423Z,99235.81
2019-04-26T17:48:21.620Z,99241.67
2019-04-26T17:50:55.628Z,99244.31
2019-04-26T17:53:33.253Z,99253.15
2019-04-26T17:56:04.015Z,99257.78
2019-04-26T17:58:49.845Z,99255.41
2019-04-26T18:01:39.919Z,99259.19
2019-04-26T18:03:55.446Z,99257.02
2019-04-26T18:06:29.827Z,99267.02
2019-04-26T18:09:02.763Z,99262.92
2019-04-26T18:11:36.728Z,99265.89
2019-04-26T18:14:21.175Z,99269.48
2019-04-26T18:16:47.063Z,99272.62
2019-04-26T18:19:29.952Z,99265.06
2019-04-26T18:21:59.940Z,99271.64
2019-04-26T18:24:35.102Z,99268.94
2019-04-26T18:27:10.331Z,99271.69
2019-04-26T18:29:44.316Z,99270.21
2019-04-26T18:32:18.012Z,99274.62
2019-04-26T18:34:53.491Z,99267.55
2019-04-26T18:37:27.867Z,99272.62
2019-04-26T18:40:07.207Z,99265.05
2019-04-26T18:42:42.188Z,99274.78
2019-04-26T18:45:21.429Z,99263.81
2019-04-26T18:47:54.858Z,99259.15
2019-04-26T18:50:28.486Z,99254.30
2019-04-26T18:53:03.221Z,99254.07
2019-04-26T18:55:38.839Z,99252.43
2019-04-26T18:58:13.542Z,99248.10
2019-04-26T19:00:47.423Z,99246.55
2019-04-26T19:03:24.672Z,99240.77
2019-04-26T19:05:58.415Z,99250.92
2019-04-26T19:08:43.863Z,99244.55
2019-04-26T19:11:07.690Z,99245.38
2019-04-26T19:13:42.217Z,99244.95
2019-04-26T19:16:18.176Z,99248.43
2019-04-26T19:18:51.779Z,99258.02
2019-04-26T19:21:25.874Z,99253.86
2019-04-26T19:24:05.760Z,99249.78
2019-04-26T19:26:35.115Z,99244.38
2019-04-26T19:29:16.357Z,99241.44
2019-04-26T19:31:43.755Z,99240.56
2019-04-26T19:34:17.877Z,99242.09
2019-04-26T19:36:52.489Z,99241.39
2019-04-26T19:39:32.417Z,99242.75
2019-04-26T19:42:06.022Z,99240.13
2019-04-26T19:44:41.931Z,99238.50
2019-04-26T19:47:15.257Z,99237.79
2019-04-26T19:49:52.428Z,99246.50
2019-04-26T19:52:25.986Z,99249.89
2019-04-26T19:54:59.774Z,99247.06
2019-04-26T19:57:38.864Z,99254.70
2019-04-26T20:00:10.262Z,99262.59
2019-04-26T20:02:43.933Z,99255.33
2019-04-26T20:05:18.202Z,99251.33
2019-04-26T20:07:52.754Z,99258.57
2019-04-26T20:10:26.608Z,99252.62
2019-04-26T20:13:00.304Z,99250.60
2019-04-26T20:15:34.555Z,99254.92
2019-04-26T20:18:09.617Z,99254.42
2019-04-26T20:20:45.426Z,99258.38
2019-04-26T20:23:20.617Z,99260.09
2019-04-26T20:25:54.473Z,99258.98
2019-04-26T20:28:29.740Z,99250.60
2019-04-26T20:31:07.799Z,99256.84
2019-04-26T20:33:39.935Z,99258.31
2019-04-26T20:36:13.527Z,99271.60
2019-04-26T20:38:47.825Z,99273.38
2019-04-26T20:41:22.046Z,99268.95
2019-04-26T20:44:05.123Z,99270.22
2019-04-26T20:46:36.031Z,99275.45
2019-04-26T20:49:08.985Z,99275.84
2019-04-26T20:51:46.085Z,99277.91
2019-04-26T20:54:16.475Z,99282.91
2019-04-26T20:56:55.291Z,99282.04
2019-04-26T20:59:25.784Z,99288.48
2019-04-26T21:02:07.586Z,99287.32
2019-04-26T21:04:38.441Z,99288.18
2019-04-26T21:07:14.004Z,99291.29
2019-04-26T21:09:45.952Z,99295.59
2019-04-26T21:12:23.176Z,99291.53
2019-04-26T21:14:58.855Z,99291.53
2019-04-26T21:17:33.958Z,99304.89
2019-04-26T21:20:08.867Z,99309.10
2019-04-26T21:22:42.518Z,99308.89
2019-04-26T21:25:16.706Z,99306.39
2019-04-26T21:27:51.707Z,99311.12
2019-04-26T21:30:29.651Z,99317.09
2019-04-26T21:33:05.512Z,99322.56
2019-04-26T21:35:39.137Z,99319.36
2019-04-26T21:38:13.429Z,99323.97
2019-04-26T21:40:47.043Z,99321.67
2019-04-26T21:43:21.041Z,99323.44
2019-04-26T21:46:07.132Z,99319.00
2019-04-26T21:48:29.773Z,99322.70
2019-04-26T21:51:03.209Z,99315.42
2019-04-26T21:53:38.281Z,99319.71
2019-04-26T21:56:12.529Z,99321.97
2019-04-26T21:58:46.761Z,99329.17
2019-04-26T22:01:25.286Z,99328.48
2019-04-26T22:04:00.633Z,99329.16
2019-04-26T22:06:35.855Z,99339.03
2019-04-26T22:09:14.000Z,99328.77
2019-04-26T22:11:49.398Z,99334.79
2019-04-26T22:14:24.269Z,99336.42
2019-04-26T22:17:02.196Z,99331.87
2019-04-26T22:19:35.333Z,99333.84
2019-04-26T22:22:08.563Z,99335.52
2019-04-26T22:24:43.482Z,99335.03
2019-04-26T22:27:21.683Z,99328.52
2019-04-26T22:29:55.093Z,99334.01
2019-04-26T22:32:30.970Z,99338.41
2019-04-26T22:35:04.457Z,99334.88
2019-04-26T22:37:41.448Z,99328.08
2019-04-26T22:40:17.017Z,99331.34
2019-04-26T22:42:49.994Z,99328.64
2019-04-26T22:45:23.772Z,99333.27
2019-04-26T22:47:58.164Z,99328.64
2019-04-26T22:50:33.546Z,99338.69
2019-04-26T22:53:07.592Z,99347.67
2019-04-26T22:55:43.451Z,99334.02
2019-04-26T22:58:20.522Z,99335.59
2019-04-26T23:00:53.431Z,99339.67
2019-04-26T23:03:26.963Z,99342.31
2019-04-26T23:06:03.605Z,99337.03
2019-04-26T23:08:39.385Z,99348.94
2019-04-26T23:11:13.400Z,99352.09
2019-04-26T23:13:47.910Z,99359.69
2019-04-26T23:16:23.342Z,99352.75
2019-04-26T23:18:57.460Z,99361.34
2019-04-26T23:21:33.922Z,99358.27
2019-04-26T23:24:11.429Z,99347.81
2019-04-26T23:26:45.344Z,99340.10
2019-04-26T23:29:19.403Z,99339.77
2019-04-26T23:31:55.541Z,99343.03
2019-04-26T23:34:30.113Z,99350.56
2019-04-26T23:37:05.499Z,99349.06
2019-04-26T23:39:44.407Z,99348.72
2019-04-26T23:42:17.473Z,99355.75
2019-04-26T23:44:51.276Z,99350.77
2019-04-26T23:47:25.617Z,99356.72
2019-04-26T23:49:59.315Z,99356.69
2019-04-26T23:52:34.765Z,99350.30
2019-04-26T23:55:09.234Z,99350.77
2019-04-26T23:57:43.586Z,99356.63
